CYYF

Penticton Airport

Penticton, , Canada
TAF CYYF 221838Z 2219/2307 18015KT P6SM BKN060 OVC200 FM230200 18015KT P6SM -SN OVC040 FM230400 18012KT 2SM -SHSN OVC015 RMK NXT FCST BY 230100Z
Issued Valid From Valid To
Jan-22 @ 18:38 UTC
(55 minutes ago)
Jan-22 @ 19:00 UTC
(33 minutes ago)
Jan-23 @ 07:00 UTC
(in 11 hours)
Jan-22 @ 19:00 to Jan-23 @ 02:00
TAF CYYF 221838Z 2219/2307 18015KT P6SM BKN060 OVC200
Wind Visibility Clouds
180° at 15 knots Greater than 6 miles
  • Broken at 6,000' AGL
  • Overcast at 20,000' AGL
From Jan-23 @ 02:00 to Jan-23 @ 04:00
FM230200 18015KT P6SM -SN OVC040
Wind Visibility Clouds Conditions
180° at 15 knots Greater than 6 miles
  • Overcast at 4,000' AGL
  • Light Snow
From Jan-23 @ 04:00 to Jan-23 @ 07:00
FM230400 18012KT 2SM -SHSN OVC015 RMK NXT FCST BY 230100Z
Wind Visibility Clouds Conditions
180° at 12 knots 2 miles
  • Overcast at 1,500' AGL
  • Light Snow
TAF CYYF 221838Z 2219/2307 18015KT P6SM BKN060 OVC200 FM230200 18015KT P6SM -SN OVC040 FM230400 18012KT 2SM -SHSN OVC015 RMK NXT FCST BY 230100Z
Issued Jan-22 @ 18:38 UTC
(55 minutes ago)
Valid From Jan-22 @ 19:00 UTC
(33 minutes ago)
Valid To Jan-23 @ 07:00 UTC
(in 11 hours)
Jan-22 @ 19:00 - Jan-23 @ 02:00
Wind Visibility
180° at 15 knots Greater than 6 miles
Clouds
  • Broken at 6,000' AGL
  • Overcast at 20,000' AGL
From Jan-23 @ 02:00 - Jan-23 @ 04:00
Wind Visibility
180° at 15 knots Greater than 6 miles
Clouds
  • Overcast at 4,000' AGL
Conditions
  • Light Snow
From Jan-23 @ 04:00 - Jan-23 @ 07:00
Wind Visibility
180° at 12 knots 2 miles
Clouds
  • Overcast at 1,500' AGL
Conditions
  • Light Snow